Time;durP1;ratioP1;P1;durP2;ratioP2;P2;SDS_P1;SDS_P2;PMS_P1;PMS_P2;Temp;Humidity;BMP_temperature;BMP_pressure;BME280_temperature;BME280_humidity;BME280_pressure;Samples;Min_cycle;Max_cycle;Signal;HPM_P1;HPM_P2
2024/03/02 00:01:35;;;;;;;3.17;1.85;;;;;;;3.30;79.86;97654.34;5022158;28;20077;-45
2024/03/02 00:04:06;;;;;;;3.17;2.50;;;;;;;3.25;80.61;97663.78;5023900;28;20675;-44
2024/03/02 00:06:33;;;;;;;6.20;1.63;;;;;;;3.19;80.96;97658.75;5026075;28;20048;-49
2024/03/02 00:09:00;;;;;;;2.70;1.27;;;;;;;3.20;80.32;97656.16;5024106;28;20108;-42
2024/03/02 00:11:28;;;;;;;4.18;1.52;;;;;;;3.11;80.28;97658.84;5023639;28;20053;-44
2024/03/02 00:13:55;;;;;;;6.95;1.50;;;;;;;3.06;79.80;97656.31;5022524;28;20075;-47
2024/03/02 00:16:23;;;;;;;3.38;1.13;;;;;;;3.01;79.29;97659.78;5023070;28;20066;-42
2024/03/02 00:18:51;;;;;;;5.88;1.27;;;;;;;2.98;79.48;97655.56;5018152;28;20054;-46
2024/03/02 00:21:21;;;;;;;6.70;1.38;;;;;;;2.93;80.23;97649.63;5020617;28;20050;-44
2024/03/02 00:23:49;;;;;;;5.68;1.30;;;;;;;2.94;80.07;97653.91;4999346;28;20101;-42
2024/03/02 00:26:16;;;;;;;6.97;1.92;;;;;;;2.99;80.33;97651.28;4992238;28;20062;-42
2024/03/02 00:28:45;;;;;;;6.32;2.40;;;;;;;3.02;80.67;97654.66;4989460;28;20061;-48
2024/03/02 00:31:13;;;;;;;8.98;2.20;;;;;;;3.05;80.80;97657.19;4996806;28;20049;-46
2024/03/02 00:33:45;;;;;;;5.25;2.05;;;;;;;3.11;80.44;97655.44;5007710;28;20061;-45
2024/03/02 00:36:15;;;;;;;5.30;1.77;;;;;;;3.16;80.09;97653.66;5009064;28;20069;-49
2024/03/02 00:38:52;;;;;;;4.63;2.28;;;;;;;3.12;80.88;97655.41;5037249;28;20052;-46
2024/03/02 00:41:35;;;;;;;8.20;2.33;;;;;;;3.17;80.95;97660.44;5006212;28;20495;-42
2024/03/02 00:44:04;;;;;;;;;;;;;;;3.16;80.18;97651.09;5009874;28;20049;-44
2024/03/02 00:46:36;;;;;;;4.97;2.65;;;;;;;3.21;80.24;97662.13;5012832;28;19928;-43
2024/03/02 00:49:05;;;;;;;6.15;2.90;;;;;;;3.23;80.06;97665.50;5006247;28;20077;-45
2024/03/02 00:51:34;;;;;;;10.98;3.05;;;;;;;3.25;80.11;97662.94;4992326;28;20150;-43
2024/03/02 00:54:04;;;;;;;7.00;2.80;;;;;;;3.27;80.36;97661.22;5009328;28;20049;-48
2024/03/02 00:56:32;;;;;;;6.03;2.63;;;;;;;3.27;79.56;97666.34;4987319;28;20069;-45
2024/03/02 00:58:59;;;;;;;6.70;2.47;;;;;;;3.28;79.72;97663.72;5003320;28;20048;-46
2024/03/02 01:01:26;;;;;;;12.30;4.07;;;;;;;3.30;79.88;97650.94;4997459;28;20185;-41
2024/03/02 01:03:53;;;;;;;4.40;2.15;;;;;;;3.29;79.57;97650.09;4997503;28;20046;-42
2024/03/02 01:06:22;;;;;;;7.70;3.17;;;;;;;3.29;79.81;97652.66;4992759;28;20137;-46
2024/03/02 01:08:51;;;;;;;6.68;2.88;;;;;;;3.24;79.90;97656.97;5009422;28;20057;-46
2024/03/02 01:11:23;;;;;;;7.78;3.90;;;;;;;3.28;79.91;97647.56;5009021;28;20054;-46
2024/03/02 01:13:52;;;;;;;9.23;3.85;;;;;;;3.29;80.00;97664.59;5006583;28;20056;-45
2024/03/02 01:16:20;;;;;;;8.32;3.75;;;;;;;3.26;79.89;97660.38;5009043;28;20100;-44
2024/03/02 01:18:48;;;;;;;9.77;4.32;;;;;;;3.24;79.89;97659.53;5032688;28;20049;-44
2024/03/02 01:21:18;;;;;;;9.45;3.63;;;;;;;3.21;80.17;97639.13;5009278;28;20525;-42
2024/03/02 01:23:46;;;;;;;7.80;3.85;;;;;;;3.22;79.70;97638.25;4988021;28;20688;-42
2024/03/02 01:26:13;;;;;;;10.68;5.93;;;;;;;3.23;79.86;97655.28;4994107;28;20050;-46
2024/03/02 01:28:41;;;;;;;11.02;5.45;;;;;;;3.14;80.01;97655.41;4997290;28;20419;-46
2024/03/02 01:31:10;;;;;;;13.43;5.00;;;;;;;3.14;80.00;97650.28;5005205;28;20053;-42
2024/03/02 01:33:39;;;;;;;9.93;3.90;;;;;;;3.02;81.03;97657.22;5003894;28;20053;-44
2024/03/02 01:36:08;;;;;;;11.90;5.03;;;;;;;3.01;80.93;97658.06;5007076;28;20061;-43
2024/03/02 01:38:35;;;;;;;14.88;5.05;;;;;;;2.98;80.86;97645.34;5003843;28;20049;-42
2024/03/02 01:41:03;;;;;;;9.43;4.65;;;;;;;2.99;80.21;97644.47;5008070;28;20054;-45
2024/03/02 01:43:31;;;;;;;15.02;4.88;;;;;;;2.98;80.36;97645.34;4998946;28;20050;-45
2024/03/02 01:45:58;;;;;;;10.25;4.43;;;;;;;2.95;80.45;97642.81;4994506;28;20056;-45
2024/03/02 01:48:25;;;;;;;9.63;4.13;;;;;;;2.92;81.58;97638.56;5008099;28;20054;-43
2024/03/02 01:50:53;;;;;;;10.70;4.05;;;;;;;2.92;80.87;97645.38;5005411;28;20142;-47
2024/03/02 01:53:20;;;;;;;13.75;4.97;;;;;;;2.86;81.56;97645.44;5008518;28;20487;-45
2024/03/02 01:55:46;;;;;;;10.68;4.10;;;;;;;2.76;81.50;97649.81;5011168;28;20049;-43
2024/03/02 01:58:13;;;;;;;14.25;5.10;;;;;;;2.70;82.31;97645.59;5008407;28;20049;-44
2024/03/02 02:00:40;;;;;;;11.43;4.75;;;;;;;2.71;82.34;97642.19;5011004;28;20065;-43
2024/03/02 02:03:07;;;;;;;18.48;5.70;;;;;;;2.76;81.91;97645.53;5008526;28;20050;-44
2024/03/02 02:05:35;;;;;;;10.10;5.25;;;;;;;2.76;82.01;97639.56;5008272;28;20100;-45
2024/03/02 02:08:01;;;;;;;11.68;4.38;;;;;;;2.76;82.77;97637.88;4993532;28;20153;-43
2024/03/02 02:10:28;;;;;;;8.07;4.03;;;;;;;2.73;82.87;97634.50;4986541;28;20110;-44
2024/03/02 02:12:55;;;;;;;7.28;3.72;;;;;;;2.68;82.23;97637.09;4987567;28;20049;-46
2024/03/02 02:15:23;;;;;;;7.70;3.42;;;;;;;2.63;83.55;97633.75;4988021;28;20133;-46
2024/03/02 02:17:50;;;;;;;10.52;3.92;;;;;;;2.67;83.46;97625.19;4988383;28;20069;-44
2024/03/02 02:20:18;;;;;;;9.18;4.32;;;;;;;2.68;83.23;97632.00;4994267;28;20050;-49
2024/03/02 02:23:03;;;;;;;9.95;4.90;;;;;;;2.63;82.45;97613.31;4990582;28;20050;-46
2024/03/02 02:25:30;;;;;;;8.60;3.78;;;;;;;2.72;82.97;97608.09;4980989;28;20054;-47
2024/03/02 02:27:57;;;;;;;9.23;3.83;;;;;;;2.63;83.24;97608.19;4987636;28;20121;-43
2024/03/02 02:30:28;;;;;;;10.23;3.50;;;;;;;2.69;82.27;97603.00;4984723;28;20133;-44
2024/03/02 02:32:55;;;;;;;7.57;4.25;;;;;;;2.62;82.59;97596.25;4988332;28;20050;-47
2024/03/02 02:35:25;;;;;;;8.35;4.40;;;;;;;2.61;82.73;97594.56;5002525;28;20099;-49
2024/03/02 02:37:54;;;;;;;7.55;4.13;;;;;;;2.67;82.59;97589.41;5005394;28;20499;-46
2024/03/02 02:40:21;;;;;;;10.43;4.78;;;;;;;2.69;82.54;97587.66;4999150;28;20050;-46
2024/03/02 02:42:47;;;;;;;10.23;4.22;;;;;;;2.62;81.74;97591.16;5007532;28;20049;-45
2024/03/02 02:45:17;;;;;;;9.52;3.78;;;;;;;2.65;82.54;97580.91;5004779;28;20077;-45
2024/03/02 02:47:44;;;;;;;11.80;5.00;;;;;;;2.68;81.76;97586.00;5002966;28;20447;-48
2024/03/02 02:50:12;;;;;;;7.85;3.50;;;;;;;2.69;81.29;97580.88;5007354;28;20046;-44
2024/03/02 02:52:40;;;;;;;11.15;4.40;;;;;;;2.69;81.62;97577.44;5004451;28;20491;-48
2024/03/02 02:55:09;;;;;;;9.38;4.05;;;;;;;2.70;81.93;97571.47;5005681;28;20038;-44
2024/03/02 02:57:38;;;;;;;7.35;3.30;;;;;;;2.64;81.39;97577.50;5007595;28;20137;-47
2024/03/02 03:00:14;;;;;;;12.70;4.10;;;;;;;2.71;81.43;97580.84;5006171;28;20138;-47
2024/03/02 03:02:42;;;;;;;9.07;4.97;;;;;;;2.73;81.80;97578.28;5013186;28;20053;-46
2024/03/02 03:05:12;;;;;;;9.52;3.72;;;;;;;2.69;81.03;97587.66;5004284;28;20045;-45
2024/03/02 03:07:40;;;;;;;11.82;5.22;;;;;;;2.70;80.98;97585.09;5006505;28;20053;-42
2024/03/02 03:10:09;;;;;;;10.75;4.80;;;;;;;2.72;81.38;97587.66;4994620;28;20050;-45
2024/03/02 03:12:36;;;;;;;14.40;6.68;;;;;;;2.74;81.08;97591.03;4986120;28;20419;-46
2024/03/02 03:15:06;;;;;;;12.63;5.05;;;;;;;2.74;81.47;97583.38;4986277;28;20061;-45
2024/03/02 03:17:34;;;;;;;9.90;3.88;;;;;;;2.75;81.29;97577.41;5004502;28;20060;-42
2024/03/02 03:20:02;;;;;;;12.40;4.75;;;;;;;2.74;80.75;97591.03;5005691;28;20495;-46
2024/03/02 03:22:32;;;;;;;8.30;3.70;;;;;;;2.70;81.10;97579.13;5006782;28;20124;-46
2024/03/02 03:24:59;;;;;;;10.25;4.78;;;;;;;2.70;81.97;97574.03;5002394;28;20050;-48
2024/03/02 03:27:27;;;;;;;13.52;5.05;;;;;;;2.68;80.85;97575.75;5004551;28;20061;-46
2024/03/02 03:29:54;;;;;;;10.63;4.50;;;;;;;2.67;80.91;97580.00;5006928;28;20476;-44
2024/03/02 03:32:21;;;;;;;13.90;4.22;;;;;;;2.69;81.69;97567.22;5006922;28;20049;-43
2024/03/02 03:34:48;;;;;;;8.90;5.05;;;;;;;2.69;81.32;97570.63;5005346;28;20578;-48
2024/03/02 03:37:15;;;;;;;12.10;4.65;;;;;;;2.70;81.44;97561.25;5004154;28;20100;-48
2024/03/02 03:39:42;;;;;;;11.23;4.72;;;;;;;2.69;80.96;97562.13;5004618;28;20046;-47
2024/03/02 03:42:09;;;;;;;9.57;3.95;;;;;;;2.68;80.92;97565.53;5007032;28;20104;-44
2024/03/02 03:44:35;;;;;;;10.45;3.85;;;;;;;2.62;80.97;97560.47;5016389;28;20049;-46
2024/03/02 03:47:02;;;;;;;14.48;4.30;;;;;;;2.61;81.52;97553.69;4982528;28;20062;-43
2024/03/02 03:49:29;;;;;;;10.52;4.00;;;;;;;2.58;82.05;97557.13;4987465;28;20054;-45
2024/03/02 03:51:56;;;;;;;6.15;2.67;;;;;;;2.53;82.36;97552.06;4988352;28;20050;-45
2024/03/02 03:54:22;;;;;;;12.25;4.80;;;;;;;2.54;82.32;97543.53;4985986;28;20065;-51
2024/03/02 03:56:49;;;;;;;9.93;4.18;;;;;;;2.54;81.40;97543.53;4987439;28;20495;-46
2024/03/02 03:59:17;;;;;;;12.85;4.65;;;;;;;2.52;82.26;97545.25;4984882;28;20141;-47
2024/03/02 04:01:44;;;;;;;6.72;3.58;;;;;;;2.52;82.31;97550.38;4991058;28;20269;-44
2024/03/02 04:04:10;;;;;;;7.95;3.88;;;;;;;2.53;81.90;97546.94;4990698;28;20097;-46
2024/03/02 04:06:38;;;;;;;11.93;5.22;;;;;;;2.50;81.19;97544.41;4989706;28;20054;-43
2024/03/02 04:09:05;;;;;;;9.80;4.75;;;;;;;2.49;82.38;97542.72;4988175;28;20054;-43
2024/03/02 04:11:32;;;;;;;10.98;4.00;;;;;;;2.48;81.22;97547.84;4989290;28;20057;-47
2024/03/02 04:13:58;;;;;;;10.98;4.60;;;;;;;2.48;81.67;97546.16;4990752;28;20487;-46
2024/03/02 04:16:25;;;;;;;17.48;6.93;;;;;;;2.45;82.09;97553.84;4995702;28;20561;-47
2024/03/02 04:18:52;;;;;;;13.38;5.97;;;;;;;2.45;81.50;97548.72;4987558;28;20046;-49
2024/03/02 04:21:19;;;;;;;13.80;3.75;;;;;;;2.47;82.47;97551.28;4989274;28;20050;-44
2024/03/02 04:23:45;;;;;;;11.98;4.10;;;;;;;2.44;82.75;97547.06;4990419;28;20054;-48
2024/03/02 04:26:12;;;;;;;6.35;2.38;;;;;;;2.42;82.66;97543.66;4995067;28;20050;-44
2024/03/02 04:28:40;;;;;;;10.93;3.55;;;;;;;2.40;82.42;97543.66;5003961;28;20700;-43
2024/03/02 04:31:07;;;;;;;10.23;4.95;;;;;;;2.42;83.08;97549.63;5008827;28;20148;-46
2024/03/02 04:33:33;;;;;;;7.95;2.47;;;;;;;2.47;82.19;97539.38;5007064;28;20104;-45
2024/03/02 04:36:00;;;;;;;7.15;2.42;;;;;;;2.50;82.38;97544.41;5010307;28;20499;-44
2024/03/02 04:38:28;;;;;;;5.40;1.75;;;;;;;2.47;83.06;97536.81;4990477;28;20046;-47
2024/03/02 04:40:56;;;;;;;5.63;2.58;;;;;;;2.49;83.08;97545.28;4997989;28;20052;-44
2024/03/02 04:43:23;;;;;;;4.00;2.05;;;;;;;2.49;83.72;97541.88;5010187;28;20053;-42
2024/03/02 04:45:50;;;;;;;9.77;2.75;;;;;;;2.50;83.88;97541.03;5008800;28;20056;-43
2024/03/02 04:48:16;;;;;;;6.82;3.05;;;;;;;2.55;84.08;97540.13;5002961;28;20053;-43
2024/03/02 04:50:46;;;;;;;6.40;3.10;;;;;;;2.49;84.82;97539.31;4998713;28;20050;-49
2024/03/02 04:53:13;;;;;;;4.63;2.40;;;;;;;2.50;83.86;97539.31;4996935;28;20082;-45
2024/03/02 04:58:17;;;;;;;4.55;1.98;;;;;;;2.45;84.15;97538.50;5052031;27;20403;-48
2024/03/02 05:00:46;;;;;;;9.07;5.30;;;;;;;2.51;84.79;97543.56;5024329;28;20060;-46
2024/03/02 05:03:13;;;;;;;4.18;3.22;;;;;;;2.60;83.61;97541.78;5033792;28;20140;-47
2024/03/02 05:05:42;;;;;;;4.93;2.47;;;;;;;2.65;84.44;97534.91;5038412;28;20079;-47
2024/03/02 05:08:11;;;;;;;6.00;2.25;;;;;;;2.67;84.17;97538.28;5036177;28;20057;-47
2024/03/02 05:10:38;;;;;;;5.32;2.33;;;;;;;2.69;84.27;97531.44;5019444;28;20145;-49
2024/03/02 05:13:05;;;;;;;2.47;2.28;;;;;;;2.68;84.06;97532.31;5019443;28;20073;-44
2024/03/02 05:15:32;;;;;;;1.52;1.42;;;;;;;2.73;83.21;97533.09;5021327;28;20568;-47
2024/03/02 05:17:59;;;;;;;2.22;2.03;;;;;;;2.77;83.06;97529.63;5016043;28;20074;-47
2024/03/02 05:20:26;;;;;;;2.92;2.72;;;;;;;2.69;83.92;97546.78;5023979;28;20144;-49
2024/03/02 05:22:53;;;;;;;2.22;0.60;;;;;;;2.70;84.73;97544.19;5023622;28;20046;-46
2024/03/02 05:25:20;;;;;;;5.15;4.75;;;;;;;2.69;84.27;97536.56;5020574;28;20061;-46
2024/03/02 05:27:47;;;;;;;1.80;1.70;;;;;;;2.69;83.99;97534.84;5016126;28;20506;-44
2024/03/02 05:30:14;;;;;;;3.50;1.75;;;;;;;2.74;83.94;97539.91;5022956;28;20056;-43
2024/03/02 05:32:41;;;;;;;2.33;1.35;;;;;;;2.72;84.69;97535.66;5022923;28;20096;-45
2024/03/02 05:35:08;;;;;;;3.25;1.85;;;;;;;2.69;84.65;97546.78;5019620;28;20062;-46
2024/03/02 05:37:35;;;;;;;1.65;0.85;;;;;;;2.66;84.98;97536.56;5022387;28;20053;-43
2024/03/02 05:40:02;;;;;;;1.45;1.35;;;;;;;2.60;85.02;97537.50;5023135;28;20050;-46
2024/03/02 05:42:29;;;;;;;2.78;2.42;;;;;;;2.72;84.45;97533.97;5019818;28;20053;-43
2024/03/02 05:44:56;;;;;;;2.63;1.02;;;;;;;2.77;83.81;97527.06;5021989;28;20111;-44
2024/03/02 05:47:22;;;;;;;3.50;2.05;;;;;;;2.85;83.52;97521.88;5015953;28;20053;-44
2024/03/02 05:49:49;;;;;;;3.17;2.30;;;;;;;2.87;84.13;97529.53;5022813;28;20061;-44
2024/03/02 05:52:16;;;;;;;2.72;2.17;;;;;;;2.93;83.99;97534.56;5021905;28;20509;-45
2024/03/02 05:54:42;;;;;;;4.22;2.88;;;;;;;2.96;83.66;97539.66;5014632;28;20058;-42
2024/03/02 05:57:22;;;;;;;3.60;2.75;;;;;;;2.95;83.57;97532.84;5012774;28;20081;-44
2024/03/02 05:59:48;;;;;;;3.75;2.75;;;;;;;3.01;83.17;97531.91;5021625;28;20065;-43
2024/03/02 06:02:16;;;;;;;4.30;2.38;;;;;;;2.99;83.51;97524.25;5022686;28;20132;-45
2024/03/02 06:04:43;;;;;;;5.45;2.83;;;;;;;3.01;83.35;97512.28;5024713;28;20049;-44
2024/03/02 06:07:10;;;;;;;2.22;2.03;;;;;;;3.01;83.05;97517.41;5018389;28;20064;-44
2024/03/02 06:09:37;;;;;;;2.63;2.42;;;;;;;3.01;83.67;97507.19;5007632;28;20049;-43
2024/03/02 06:12:07;;;;;;;7.00;1.90;;;;;;;3.01;83.71;97509.72;5006591;28;20041;-46
2024/03/02 06:14:33;;;;;;;3.25;2.95;;;;;;;2.99;83.33;97508.94;5004160;28;20053;-51
2024/03/02 06:17:01;;;;;;;2.13;1.67;;;;;;;2.98;83.60;97507.25;5002216;28;20042;-45
2024/03/02 06:19:28;;;;;;;2.40;1.30;;;;;;;2.91;83.84;97510.75;4997565;28;20051;-46
2024/03/02 06:21:55;;;;;;;2.83;1.95;;;;;;;2.83;83.96;97514.22;4990146;28;20050;-45
2024/03/02 06:24:21;;;;;;;2.03;1.45;;;;;;;2.86;84.43;97515.03;4987379;28;20050;-46
2024/03/02 06:26:48;;;;;;;3.20;1.98;;;;;;;2.81;85.38;97513.41;4989040;28;20050;-46
2024/03/02 06:29:15;;;;;;;4.07;1.67;;;;;;;2.92;85.07;97507.31;4989618;28;20046;-44
2024/03/02 06:31:41;;;;;;;3.45;2.13;;;;;;;3.01;84.36;97503.78;4989309;28;20085;-46
2024/03/02 06:34:08;;;;;;;4.43;1.90;;;;;;;2.95;84.59;97502.16;4990287;28;20210;-46
2024/03/02 06:36:35;;;;;;;2.83;1.83;;;;;;;2.87;85.68;97488.63;4986052;28;20058;-45
2024/03/02 06:39:02;;;;;;;2.05;1.63;;;;;;;2.91;85.15;97495.41;4990737;28;20050;-46
2024/03/02 06:41:28;;;;;;;5.47;2.92;;;;;;;2.89;84.83;97490.31;4992156;28;20043;-47
2024/03/02 06:43:59;;;;;;;2.58;2.38;;;;;;;2.97;84.24;97495.31;4992597;28;20957;-44
2024/03/02 06:46:28;;;;;;;7.85;2.28;;;;;;;2.97;84.64;97479.97;4986486;28;20042;-45
2024/03/02 06:48:54;;;;;;;3.30;2.13;;;;;;;2.94;84.41;97483.41;4988908;28;20053;-44
2024/03/02 06:51:21;;;;;;;2.78;2.55;;;;;;;2.93;85.41;97475.75;4989673;28;20062;-45
2024/03/02 06:53:48;;;;;;;3.42;2.40;;;;;;;3.01;84.43;97471.38;4987085;28;20054;-44
2024/03/02 06:56:16;;;;;;;5.78;2.30;;;;;;;3.02;84.58;97467.97;4988863;28;20500;-47
2024/03/02 06:58:43;;;;;;;4.03;1.00;;;;;;;3.03;85.17;97473.91;4989701;28;20046;-47
2024/03/02 07:01:11;;;;;;;5.93;2.03;;;;;;;3.09;85.42;97468.72;4986481;28;20431;-47
2024/03/02 07:03:39;;;;;;;7.68;2.63;;;;;;;3.14;85.33;97466.09;4983167;28;20054;-44
2024/03/02 07:06:07;;;;;;;7.38;3.03;;;;;;;3.16;85.30;97469.47;4989690;28;20491;-45
2024/03/02 07:08:34;;;;;;;1.88;1.77;;;;;;;3.17;85.31;97468.59;4984375;28;20046;-47
2024/03/02 07:11:00;;;;;;;2.78;1.90;;;;;;;3.17;85.00;97466.03;4986254;28;20136;-45
2024/03/02 07:13:27;;;;;;;3.50;2.45;;;;;;;3.17;85.96;97460.94;4983662;28;20054;-45
2024/03/02 07:16:21;;;;;;;4.53;4.10;;;;;;;3.27;85.34;97452.25;4983583;28;20077;-45
2024/03/02 07:18:42;;;;;;;4.45;0.88;;;;;;;3.33;84.88;97452.19;5004431;28;20050;-47
2024/03/02 07:21:08;;;;;;;4.80;2.00;;;;;;;3.38;84.87;97448.69;4988037;28;20104;-45
2024/03/02 07:23:35;;;;;;;3.67;2.35;;;;;;;3.39;84.84;97440.16;4988738;28;20050;-52
2024/03/02 07:26:03;;;;;;;2.53;2.05;;;;;;;3.40;84.91;97446.94;4986279;28;20053;-47
2024/03/02 07:28:33;;;;;;;;;;;;;;;3.34;85.25;97446.19;4986616;28;20100;-46
2024/03/02 07:31:01;;;;;;;11.32;2.15;;;;;;;3.40;85.25;97446.94;4979718;28;19926;-42
2024/03/02 07:33:28;;;;;;;4.25;1.98;;;;;;;3.44;84.51;97438.34;4985928;28;20054;-45
2024/03/02 07:35:56;;;;;;;2.53;2.33;;;;;;;3.49;84.41;97451.06;4989148;28;20129;-45
2024/03/02 07:38:23;;;;;;;2.00;1.00;;;;;;;3.46;84.91;97449.41;4986347;28;20418;-48
2024/03/02 07:40:51;;;;;;;4.32;1.55;;;;;;;3.44;85.40;97454.56;4988777;28;20545;-45
2024/03/02 07:43:19;;;;;;;2.47;1.95;;;;;;;3.48;85.50;97452.81;4989549;28;20046;-45
2024/03/02 07:45:46;;;;;;;2.15;1.75;;;;;;;3.54;84.62;97454.41;4983914;28;20136;-49
2024/03/02 07:48:13;;;;;;;1.70;0.35;;;;;;;3.60;84.63;97451.75;4982838;28;20464;-46
2024/03/02 07:50:40;;;;;;;3.67;1.77;;;;;;;3.56;85.14;97463.78;4979823;28;20054;-46
2024/03/02 07:53:08;;;;;;;3.15;2.08;;;;;;;3.49;85.63;97459.63;4985968;28;20062;-46
2024/03/02 07:55:34;;;;;;;8.55;2.33;;;;;;;3.65;85.37;97457.63;5016127;28;20149;-42
2024/03/02 07:58:01;;;;;;;5.18;2.08;;;;;;;3.68;85.25;97461.88;4984940;28;20092;-48
2024/03/02 08:00:28;;;;;;;3.10;1.70;;;;;;;3.68;85.72;97467.00;4984631;28;20054;-44
2024/03/02 08:02:56;;;;;;;3.92;1.60;;;;;;;3.65;85.67;97473.00;4985058;28;20551;-42
2024/03/02 08:05:22;;;;;;;3.17;0.88;;;;;;;3.65;85.67;97457.63;4977992;28;20374;-48
2024/03/02 08:07:52;;;;;;;4.72;1.58;;;;;;;3.69;85.67;97466.94;4987722;28;20042;-41
2024/03/02 08:10:19;;;;;;;2.67;2.45;;;;;;;3.75;85.63;97463.44;4977490;28;20561;-45
2024/03/02 08:12:46;;;;;;;3.20;1.73;;;;;;;3.70;85.78;97460.13;4974322;28;20042;-44
2024/03/02 08:15:13;;;;;;;3.28;1.90;;;;;;;3.71;86.53;97472.91;4980102;28;20054;-41
2024/03/02 08:17:48;;;;;;;4.20;2.30;;;;;;;3.70;86.64;97460.97;4975667;28;20070;-47
2024/03/02 08:20:15;;;;;;;3.78;2.05;;;;;;;3.73;86.26;97466.06;4977402;28;20069;-45
2024/03/02 08:22:42;;;;;;;3.83;2.13;;;;;;;3.79;86.22;97454.88;4984444;28;20082;-49
2024/03/02 08:25:09;;;;;;;2.75;1.75;;;;;;;3.82;86.61;97469.31;4987026;28;20054;-46
2024/03/02 08:27:36;;;;;;;2.03;1.38;;;;;;;3.80;86.34;97464.22;4983372;28;20129;-49
2024/03/02 08:30:06;;;;;;;2.72;2.53;;;;;;;3.85;86.90;97470.09;4978411;28;20059;-52
2024/03/02 08:32:33;;;;;;;4.72;2.45;;;;;;;3.85;86.72;97474.41;4986020;28;20058;-45
2024/03/02 08:35:00;;;;;;;10.48;2.72;;;;;;;3.90;87.30;97477.72;4984574;28;20050;-47
2024/03/02 08:37:27;;;;;;;3.20;2.05;;;;;;;3.97;87.70;97474.19;4988083;28;20057;-43
2024/03/02 08:39:54;;;;;;;4.97;1.27;;;;;;;4.08;86.89;97480.81;4987251;28;20054;-44
2024/03/02 08:42:22;;;;;;;2.80;1.73;;;;;;;4.13;86.90;97480.75;4988973;28;20056;-46
2024/03/02 08:44:49;;;;;;;1.83;1.45;;;;;;;4.16;86.71;97483.25;4982629;28;20046;-51
2024/03/02 08:47:16;;;;;;;2.53;1.83;;;;;;;4.27;86.23;97481.34;4985882;28;20139;-47
2024/03/02 08:49:43;;;;;;;2.13;1.92;;;;;;;4.29;86.48;97479.56;4987810;28;20061;-49
2024/03/02 08:52:12;;;;;;;2.25;1.67;;;;;;;4.39;86.44;97484.53;4987992;28;20058;-47
2024/03/02 08:54:39;;;;;;;1.55;1.45;;;;;;;4.46;86.18;97486.94;4993331;28;20086;-43
2024/03/02 08:57:07;;;;;;;2.63;1.58;;;;;;;4.52;85.60;97485.16;4983964;28;20058;-46
2024/03/02 08:59:34;;;;;;;1.33;1.23;;;;;;;4.54;85.69;97483.38;4989232;28;20050;-45
2024/03/02 09:02:00;;;;;;;8.93;1.77;;;;;;;4.56;85.69;97487.59;4984953;28;20046;-47
2024/03/02 09:04:29;;;;;;;1.38;1.27;;;;;;;4.60;85.06;97496.09;4987180;28;20072;-49
2024/03/02 09:07:00;;;;;;;1.55;1.45;;;;;;;4.63;84.77;97489.19;4992506;28;20499;-46
2024/03/02 09:09:27;;;;;;;1.50;1.10;;;;;;;4.61;85.05;97495.22;5007981;28;20050;-46
2024/03/02 09:11:57;;;;;;;1.70;1.60;;;;;;;4.71;84.99;97501.00;5004547;28;20478;-46
2024/03/02 09:14:24;;;;;;;3.83;1.45;;;;;;;4.67;84.48;97486.56;5005003;28;20136;-45
2024/03/02 09:16:51;;;;;;;2.42;2.25;;;;;;;4.70;84.75;97499.31;5006763;28;20060;-46
2024/03/02 09:19:18;;;;;;;5.18;2.42;;;;;;;4.75;84.85;97494.94;5006431;28;20155;-43
2024/03/02 09:21:46;;;;;;;2.50;1.80;;;;;;;4.74;84.00;97495.81;4998104;28;20049;-49
2024/03/02 09:24:13;;;;;;;1.77;1.10;;;;;;;4.78;83.84;97497.44;5007940;28;20412;-43
2024/03/02 09:26:43;;;;;;;3.38;1.90;;;;;;;4.85;83.45;97486.19;5001633;28;20049;-47
2024/03/02 09:29:10;;;;;;;4.25;2.17;;;;;;;4.85;84.48;97493.88;5002727;28;20526;-45
2024/03/02 09:31:41;;;;;;;3.00;2.20;;;;;;;4.85;83.87;97499.00;5010894;28;20522;-44
2024/03/02 09:34:08;;;;;;;2.72;2.53;;;;;;;4.95;85.07;97493.69;5009307;28;20132;-46
2024/03/02 09:36:35;;;;;;;3.08;2.70;;;;;;;5.05;83.86;97500.31;5005420;28;20144;-45
2024/03/02 09:39:03;;;;;;;1.70;1.15;;;;;;;5.13;84.12;97492.44;5007284;28;20054;-46
2024/03/02 09:41:32;;;;;;;4.40;1.83;;;;;;;5.16;82.91;97501.81;5011582;28;20481;-45
2024/03/02 09:43:59;;;;;;;1.30;1.23;;;;;;;5.24;83.63;97505.03;5008521;28;20057;-45
2024/03/02 09:46:26;;;;;;;4.32;0.98;;;;;;;5.24;83.31;97495.59;5004953;28;20447;-45
2024/03/02 09:48:53;;;;;;;1.88;1.42;;;;;;;5.26;83.35;97500.72;5011499;28;20050;-45
2024/03/02 09:51:20;;;;;;;1.60;1.45;;;;;;;5.18;82.51;97495.75;5018014;28;20058;-44
2024/03/02 09:53:48;;;;;;;1.88;1.70;;;;;;;5.17;83.17;97498.34;5010497;28;20049;-44
2024/03/02 09:56:16;;;;;;;2.40;1.63;;;;;;;5.13;81.66;97500.97;5010413;28;20060;-45
2024/03/02 09:58:43;;;;;;;1.45;1.33;;;;;;;5.12;82.62;97496.75;5017054;28;20050;-44
2024/03/02 10:01:10;;;;;;;1.48;1.38;;;;;;;5.20;82.45;97508.56;5011204;28;20057;-46
2024/03/02 10:03:38;;;;;;;1.77;1.67;;;;;;;5.24;82.77;97502.47;5004877;28;20053;-46
2024/03/02 10:06:27;;;;;;;1.80;1.65;;;;;;;5.34;82.87;97506.50;5040047;28;20064;-45
2024/03/02 10:08:54;;;;;;;1.88;1.30;;;;;;;5.55;83.03;97503.50;5005441;28;20050;-45
2024/03/02 10:11:31;;;;;;;1.30;1.20;;;;;;;5.77;81.97;97502.09;5009432;28;20065;-46
2024/03/02 10:16:44;;;;;;;1.27;0.82;;;;;;;6.72;81.18;97500.56;5024748;27;20991;-45
2024/03/02 10:19:20;;;;;;;4.07;1.02;;;;;;;7.46;80.30;97503.53;4988394;28;20456;-45
2024/03/02 10:21:50;;;;;;;1.10;0.93;;;;;;;8.23;78.04;97501.94;4992559;28;20054;-42
2024/03/02 10:24:18;;;;;;;0.95;0.60;;;;;;;8.96;77.38;97506.28;4987193;28;20080;-48
2024/03/02 10:26:46;;;;;;;0.85;0.85;;;;;;;9.35;73.83;97503.97;4988973;28;20457;-45
2024/03/02 10:29:13;;;;;;;0.55;0.55;;;;;;;9.62;71.35;97506.38;4991683;28;20451;-43
2024/03/02 10:31:41;;;;;;;2.67;0.82;;;;;;;9.62;71.76;97514.13;4987568;28;20058;-46
2024/03/02 10:34:11;;;;;;;1.55;0.65;;;;;;;9.45;70.24;97510.47;4993317;28;20047;-47
2024/03/02 10:36:43;;;;;;;1.25;1.20;;;;;;;9.19;69.38;97512.31;4997176;28;20058;-47
2024/03/02 10:39:10;;;;;;;1.10;0.45;;;;;;;8.91;69.01;97513.34;4982652;28;20054;-47
2024/03/02 10:41:38;;;;;;;1.48;0.52;;;;;;;8.55;69.22;97518.94;4999004;28;20053;-46
2024/03/02 10:44:07;;;;;;;1.15;1.15;;;;;;;8.27;70.62;97512.16;4996141;28;20054;-46
2024/03/02 10:46:36;;;;;;;0.30;0.30;;;;;;;8.00;70.24;97515.59;4995864;28;20049;-46
2024/03/02 10:49:04;;;;;;;1.33;1.23;;;;;;;7.88;70.51;97527.16;4988862;28;20050;-50
2024/03/02 10:51:37;;;;;;;0.60;0.47;;;;;;;7.80;70.95;97521.41;4999453;28;20053;-47
2024/03/02 10:54:04;;;;;;;1.17;0.52;;;;;;;7.90;71.95;97520.19;4988800;28;20101;-44
2024/03/02 10:56:38;;;;;;;1.13;0.95;;;;;;;7.79;71.01;97517.13;5003600;28;20049;-45
2024/03/02 10:59:44;;;;;;;1.00;0.63;;;;;;;7.54;70.06;97523.88;4996556;28;20054;-46
2024/03/02 11:02:14;;;;;;;1.30;1.20;;;;;;;7.49;71.93;97527.53;4989807;28;20063;-44
2024/03/02 11:04:46;;;;;;;1.00;0.77;;;;;;;7.38;71.37;97528.69;4987738;28;20100;-43
2024/03/02 11:07:13;;;;;;;0.47;0.47;;;;;;;7.35;72.24;97528.78;4984126;28;20050;-48
2024/03/02 11:09:49;;;;;;;0.68;0.68;;;;;;;7.36;72.49;97527.88;4981331;28;20058;-45
2024/03/02 11:12:22;;;;;;;2.78;0.40;;;;;;;7.31;72.75;97522.88;4979053;28;20061;-48
2024/03/02 11:14:52;;;;;;;1.45;0.73;;;;;;;7.30;73.09;97520.34;4982065;28;20482;-44
2024/03/02 11:17:19;;;;;;;0.30;0.30;;;;;;;7.12;73.29;97538.03;4985224;28;20061;-49
2024/03/02 11:19:47;;;;;;;1.13;1.13;;;;;;;6.82;74.11;97531.13;4982014;28;20051;-45
2024/03/02 11:22:16;;;;;;;2.30;0.50;;;;;;;6.63;74.10;97538.53;4983696;28;20057;-49
2024/03/02 11:24:52;;;;;;;2.63;0.65;;;;;;;6.51;75.54;97547.41;4989046;28;20050;-46
2024/03/02 11:33:10;;;;;;;0.45;0.35;;;;;;;6.82;76.79;97550.88;5084027;27;20382;-46
2024/03/02 11:35:46;;;;;;;0.57;0.55;;;;;;;6.86;76.08;97549.91;5025955;27;20495;-45
2024/03/02 11:38:13;;;;;;;0.55;0.55;;;;;;;6.77;76.38;97555.31;5015605;28;20085;-45
2024/03/02 11:40:40;;;;;;;1.35;1.25;;;;;;;6.69;75.48;97566.66;5029106;28;20081;-47
2024/03/02 11:43:08;;;;;;;0.63;0.40;;;;;;;6.65;75.61;97564.19;5030920;28;20419;-46
2024/03/02 11:45:39;;;;;;;0.95;0.93;;;;;;;6.60;75.84;97566.06;5018771;28;20050;-45
2024/03/02 11:48:12;;;;;;;0.40;0.40;;;;;;;6.74;76.94;97557.97;5038686;28;20046;-46
2024/03/02 11:53:19;;;;;;;2.28;2.17;;;;;;;6.56;74.51;97560.97;5044151;27;20411;-45
2024/03/02 11:55:50;;;;;;;2.55;1.98;;;;;;;6.60;73.42;97556.63;5039581;28;20080;-45
2024/03/02 11:58:20;;;;;;;1.63;1.52;;;;;;;6.55;74.29;97561.03;5041653;28;20570;-46
2024/03/02 12:00:47;;;;;;;2.05;1.95;;;;;;;6.58;74.85;97557.53;5040247;28;20049;-46